createdAt,value
2023-04-19T00:06:53.190Z,5.30
2023-04-19T00:19:53.191Z,5.40
2023-04-19T00:32:53.271Z,4.70
2023-04-19T00:45:53.186Z,4.30
2023-04-19T00:58:53.200Z,4.20
2023-04-19T01:11:53.191Z,4.10
2023-04-19T01:24:53.197Z,3.80
2023-04-19T01:37:53.207Z,3.80
2023-04-19T01:50:53.213Z,3.60
2023-04-19T02:03:53.285Z,3.50
2023-04-19T02:16:53.338Z,3.10
2023-04-19T02:29:53.246Z,2.70
2023-04-19T02:42:53.242Z,2.80
2023-04-19T02:55:53.240Z,2.90
2023-04-19T03:08:53.251Z,2.60
2023-04-19T03:21:53.251Z,2.50
2023-04-19T03:34:53.260Z,2.40
2023-04-19T03:47:53.260Z,2.40
2023-04-19T04:00:53.244Z,2.50
2023-04-19T04:13:53.253Z,2.40
2023-04-19T04:27:53.266Z,2.40
2023-04-19T04:41:53.287Z,2.00
2023-04-19T04:55:53.279Z,2.10
2023-04-19T05:09:53.293Z,2.85
2023-04-19T05:23:53.309Z,3.00
2023-04-19T05:37:53.291Z,3.20
2023-04-19T05:51:53.298Z,3.60
2023-04-19T06:05:53.308Z,3.10
2023-04-19T06:19:53.324Z,2.80
2023-04-19T06:33:53.323Z,2.65
2023-04-19T06:47:53.365Z,2.90
2023-04-19T07:01:53.469Z,2.50
2023-04-19T07:15:53.352Z,2.30
2023-04-19T07:29:53.324Z,2.30
2023-04-19T07:43:53.341Z,2.20
2023-04-19T07:57:53.335Z,2.00
2023-04-19T08:11:53.346Z,1.90
2023-04-19T08:25:53.357Z,1.90
2023-04-19T08:39:53.363Z,2.10
2023-04-19T08:53:53.361Z,1.80
2023-04-19T09:07:53.351Z,1.70
2023-04-19T09:21:53.354Z,1.70
2023-04-19T09:35:53.343Z,1.40
2023-04-19T09:49:53.507Z,1.50
2023-04-19T10:03:53.761Z,1.50
2023-04-19T10:17:53.476Z,1.20
2023-04-19T10:31:53.469Z,1.30
2023-04-19T10:45:53.428Z,1.20
2023-04-19T10:59:53.392Z,1.50
2023-04-19T11:13:53.392Z,1.40
2023-04-19T11:27:53.490Z,1.10
2023-04-19T11:41:53.389Z,1.30
2023-04-19T11:55:53.484Z,1.20
2023-04-19T12:09:53.401Z,0.90
2023-04-19T12:23:53.410Z,1.50
2023-04-19T12:37:53.398Z,1.60
2023-04-19T12:51:55.226Z,1.40
2023-04-19T13:05:53.515Z,1.20
2023-04-19T13:19:53.465Z,1.30
2023-04-19T13:33:53.461Z,1.30
2023-04-19T13:47:53.518Z,5.80
2023-04-19T14:01:53.475Z,6.30
2023-04-19T14:15:53.439Z,6.00
2023-04-19T14:29:53.476Z,5.70
2023-04-19T14:43:53.470Z,5.50
2023-04-19T14:57:53.447Z,5.40
2023-04-19T15:11:53.448Z,5.20
2023-04-19T15:25:53.451Z,4.80
2023-04-19T15:39:53.453Z,4.55
2023-04-19T15:53:53.491Z,4.50
2023-04-19T16:07:53.460Z,4.20
2023-04-19T16:21:53.493Z,3.70
2023-04-19T16:32:53.531Z,3.80
2023-04-19T16:46:53.479Z,3.60
2023-04-19T17:00:53.498Z,3.20
2023-04-19T17:11:53.511Z,3.00
2023-04-19T17:25:53.551Z,3.15
2023-04-19T17:39:53.578Z,2.70
2023-04-19T17:53:53.523Z,2.50
2023-04-19T18:08:53.531Z,2.60
2023-04-19T18:19:53.585Z,2.70
2023-04-19T18:30:53.597Z,2.60
2023-04-19T18:41:53.569Z,2.70
2023-04-19T18:54:53.582Z,62.90
2023-04-19T19:07:53.887Z,42.40
2023-04-19T19:20:53.615Z,40.50
2023-04-19T19:34:09.392Z,38.50
2023-04-19T19:46:53.629Z,36.30
2023-04-19T19:59:56.183Z,33.60
2023-04-19T20:12:53.616Z,30.70
2023-04-19T20:25:53.605Z,27.85
2023-04-19T20:38:53.605Z,26.60
2023-04-19T20:51:53.633Z,25.30
2023-04-19T21:04:53.612Z,23.70
2023-04-19T21:17:53.614Z,21.90
2023-04-19T21:30:53.647Z,22.90
2023-04-19T21:43:53.630Z,25.70
2023-04-19T21:56:53.641Z,27.00
2023-04-19T22:09:53.638Z,26.60
2023-04-19T22:22:53.627Z,25.70
2023-04-19T22:35:53.652Z,24.40
2023-04-19T22:48:53.662Z,23.60
2023-04-19T23:01:53.815Z,22.10
2023-04-19T23:14:53.671Z,20.95
2023-04-19T23:27:53.670Z,19.60
2023-04-19T23:40:54.118Z,18.30
2023-04-19T23:53:53.664Z,17.90
